Time;durP1;ratioP1;P1;durP2;ratioP2;P2;SDS_P1;SDS_P2;PMS_P1;PMS_P2;Temp;Humidity;BMP_temperature;BMP_pressure;BME280_temperature;BME280_humidity;BME280_pressure;Samples;Min_cycle;Max_cycle;Signal;HPM_P1;HPM_P2
2022/12/12 00:01:42;;;;;;;39.43;23.70;;;0.50;99.90;;;;;;4995676;28;20542;-69
2022/12/12 00:04:07;;;;;;;36.10;23.40;;;0.60;99.90;;;;;;4996797;28;20176;-69
2022/12/12 00:06:33;;;;;;;41.40;24.67;;;0.60;99.90;;;;;;4996862;28;20626;-70
2022/12/12 00:08:59;;;;;;;36.70;23.57;;;0.50;99.90;;;;;;4996365;28;20214;-69
2022/12/12 00:11:25;;;;;;;33.03;22.67;;;0.50;99.90;;;;;;4996280;28;20216;-69
2022/12/12 00:13:53;;;;;;;37.63;23.37;;;0.50;99.90;;;;;;4995153;28;20267;-69
2022/12/12 00:16:20;;;;;;;40.47;23.53;;;0.50;99.90;;;;;;4994915;28;20673;-69
2022/12/12 00:18:45;;;;;;;37.20;24.13;;;0.50;99.90;;;;;;4996281;28;20250;-69
2022/12/12 00:21:21;;;;;;;42.57;24.70;;;0.50;99.90;;;;;;4996029;28;20270;-69
2022/12/12 00:23:47;;;;;;;38.77;23.87;;;0.50;99.90;;;;;;5000565;28;20672;-69
2022/12/12 00:26:23;;;;;;;38.30;24.40;;;0.50;99.90;;;;;;4995876;28;20177;-69
2022/12/12 00:28:49;;;;;;;37.13;22.70;;;0.50;99.90;;;;;;4996217;28;20235;-69
2022/12/12 00:31:16;;;;;;;38.10;23.73;;;0.50;99.90;;;;;;5011329;28;20274;-69
2022/12/12 00:33:43;;;;;;;35.67;23.67;;;0.50;99.90;;;;;;5011174;28;20204;-69
2022/12/12 00:36:09;;;;;;;32.33;23.30;;;0.50;99.90;;;;;;4995928;28;20545;-69
2022/12/12 00:38:35;;;;;;;33.30;22.53;;;0.50;99.90;;;;;;5010963;28;20218;-69
2022/12/12 00:41:01;;;;;;;38.40;23.77;;;0.50;99.90;;;;;;4995549;28;20749;-70
2022/12/12 00:43:27;;;;;;;37.93;24.90;;;0.50;99.90;;;;;;4996222;28;20193;-69
2022/12/12 00:45:53;;;;;;;36.87;23.77;;;0.50;99.90;;;;;;5010769;28;20180;-69
2022/12/12 00:48:19;;;;;;;37.37;23.60;;;0.50;99.90;;;;;;4995978;28;20176;-69
2022/12/12 00:50:45;;;;;;;39.60;25.23;;;0.50;99.90;;;;;;4995694;28;20184;-69
2022/12/12 00:53:12;;;;;;;37.30;24.93;;;0.50;99.90;;;;;;4995527;28;20291;-69
2022/12/12 00:55:38;;;;;;;41.10;25.53;;;0.50;99.90;;;;;;4995352;28;20176;-69
2022/12/12 00:58:03;;;;;;;42.30;25.73;;;0.50;99.90;;;;;;4995678;28;20184;-69
2022/12/12 01:00:29;;;;;;;39.90;24.33;;;0.50;99.90;;;;;;4995361;28;20212;-69
2022/12/12 01:02:56;;;;;;;45.07;26.53;;;0.50;99.90;;;;;;5010436;28;20200;-69
2022/12/12 01:05:23;;;;;;;40.10;25.23;;;0.40;99.90;;;;;;4995255;28;20745;-69
2022/12/12 01:07:49;;;;;;;43.87;25.63;;;0.40;99.90;;;;;;5010395;28;20234;-69
2022/12/12 01:10:14;;;;;;;39.00;24.17;;;0.40;99.90;;;;;;4995552;28;20246;-71
2022/12/12 01:12:40;;;;;;;36.23;23.80;;;0.40;99.90;;;;;;4994926;28;20290;-69
2022/12/12 01:15:07;;;;;;;39.07;24.50;;;0.40;99.90;;;;;;5010194;28;20184;-69
2022/12/12 01:17:36;;;;;;;42.17;25.20;;;0.40;99.90;;;;;;4994988;28;20199;-70
2022/12/12 01:20:24;;;;;;;38.90;24.23;;;0.40;99.90;;;;;;5010143;28;20235;-69
2022/12/12 01:22:50;;;;;;;41.13;25.00;;;0.40;99.90;;;;;;4993457;28;20278;-69
2022/12/12 01:25:17;;;;;;;35.73;24.27;;;0.40;99.90;;;;;;4993829;28;20172;-70
2022/12/12 01:27:44;;;;;;;43.20;24.93;;;0.40;99.90;;;;;;4993662;28;20176;-69
2022/12/12 01:30:17;;;;;;;45.20;24.37;;;0.40;99.90;;;;;;4994847;28;20255;-70
2022/12/12 01:32:44;;;;;;;46.40;25.57;;;0.50;99.90;;;;;;4993566;28;20231;-69
2022/12/12 01:35:10;;;;;;;40.83;24.47;;;0.40;99.90;;;;;;4994834;28;20549;-69
2022/12/12 01:37:37;;;;;;;42.90;25.57;;;0.40;99.90;;;;;;4993767;28;20554;-70
2022/12/12 01:40:05;;;;;;;46.77;24.37;;;0.40;99.90;;;;;;4994662;28;20203;-69
2022/12/12 01:42:31;;;;;;;41.47;24.43;;;0.40;99.90;;;;;;4994473;28;20204;-69
2022/12/12 01:44:57;;;;;;;41.03;23.50;;;0.40;99.90;;;;;;4994963;28;20172;-69
2022/12/12 01:47:24;;;;;;;44.07;23.93;;;0.50;99.90;;;;;;4993294;28;20173;-69
2022/12/12 01:49:56;;;;;;;43.20;24.73;;;0.50;99.90;;;;;;4993486;28;20177;-69
2022/12/12 01:52:29;;;;;;;39.77;23.67;;;0.40;99.90;;;;;;4994564;28;20192;-68
2022/12/12 01:54:59;;;;;;;42.83;24.30;;;0.40;99.90;;;;;;4993264;28;20175;-69
2022/12/12 01:57:38;;;;;;;38.83;23.97;;;0.40;99.90;;;;;;4994340;28;20177;-69
2022/12/12 02:00:07;;;;;;;39.23;21.50;;;0.40;99.90;;;;;;4994689;28;20161;-69
2022/12/12 02:02:33;;;;;;;41.03;23.70;;;0.40;99.90;;;;;;4994395;28;20284;-69
2022/12/12 02:05:04;;;;;;;38.13;22.93;;;0.40;99.90;;;;;;4995187;28;20172;-69
2022/12/12 02:07:30;;;;;;;42.70;24.50;;;0.50;99.90;;;;;;4995413;28;20625;-70
2022/12/12 02:09:55;;;;;;;39.43;24.43;;;0.50;99.90;;;;;;4996025;28;20211;-69
2022/12/12 02:12:21;;;;;;;35.47;22.67;;;0.50;99.90;;;;;;4994948;28;20195;-69
2022/12/12 02:14:50;;;;;;;36.43;23.17;;;0.50;99.90;;;;;;4994565;28;20243;-69
2022/12/12 02:17:57;;;;;;;38.10;23.63;;;0.50;99.90;;;;;;4994411;28;20550;-69
2022/12/12 02:20:44;;;;;;;38.70;23.60;;;0.50;99.90;;;;;;4994099;28;20195;-69
2022/12/12 02:23:42;;;;;;;32.27;22.60;;;0.50;99.90;;;;;;4993816;28;20685;-69
2022/12/12 02:26:15;;;;;;;35.37;23.77;;;0.50;99.90;;;;;;4994014;28;20176;-69
2022/12/12 02:28:59;;;;;;;39.20;24.50;;;0.50;99.90;;;;;;4992903;28;20180;-69
2022/12/12 02:31:37;;;;;;;36.93;24.20;;;0.50;99.90;;;;;;4994048;28;20173;-69
2022/12/12 02:34:25;;;;;;;39.57;23.80;;;0.50;99.90;;;;;;4994326;28;20527;-69
2022/12/12 02:37:04;;;;;;;35.17;23.90;;;0.50;99.90;;;;;;4994148;28;20165;-69
2022/12/12 02:39:36;;;;;;;41.53;23.40;;;0.50;99.90;;;;;;4994258;28;20184;-69
2022/12/12 02:42:09;;;;;;;36.77;23.43;;;0.50;99.90;;;;;;4993961;28;20222;-69
2022/12/12 02:44:40;;;;;;;35.27;24.70;;;0.50;99.90;;;;;;4992987;28;20177;-69
2022/12/12 02:47:17;;;;;;;37.93;23.50;;;0.50;99.90;;;;;;4994577;28;20312;-69
2022/12/12 02:49:52;;;;;;;37.90;23.77;;;0.50;99.90;;;;;;4994499;28;20211;-69
2022/12/12 02:52:18;;;;;;;38.47;23.40;;;0.50;99.90;;;;;;4993845;28;20207;-69
2022/12/12 02:54:44;;;;;;;40.17;26.20;;;0.50;99.90;;;;;;4993916;28;20180;-69
2022/12/12 02:57:18;;;;;;;41.47;24.80;;;0.50;99.90;;;;;;4993857;28;20180;-69
2022/12/12 02:59:51;;;;;;;36.13;23.77;;;0.40;99.90;;;;;;4993780;28;20645;-69
2022/12/12 03:02:44;;;;;;;40.03;24.30;;;0.40;99.90;;;;;;4994096;28;20205;-69
2022/12/12 03:09:21;;;;;;;32.93;22.20;;;0.40;99.90;;;;;;4953346;29;20190;-69
2022/12/12 03:11:58;;;;;;;35.60;23.03;;;0.50;99.90;;;;;;4936842;29;20201;-69
2022/12/12 03:14:37;;;;;;;36.70;24.30;;;0.40;99.90;;;;;;4982645;28;20195;-70
2022/12/12 03:17:18;;;;;;;38.80;25.03;;;0.50;99.90;;;;;;4993668;28;20161;-69
2022/12/12 03:19:57;;;;;;;35.27;22.90;;;0.50;99.90;;;;;;4992485;28;20180;-69
2022/12/12 03:22:28;;;;;;;38.40;23.63;;;0.50;99.90;;;;;;4992405;28;20247;-69
2022/12/12 03:25:18;;;;;;;40.77;23.80;;;0.50;99.90;;;;;;4993603;28;20193;-71
2022/12/12 03:28:01;;;;;;;33.53;23.20;;;0.50;99.90;;;;;;4992281;28;20248;-69
2022/12/12 03:30:28;;;;;;;41.17;25.97;;;0.50;99.90;;;;;;4993895;28;20653;-70
2022/12/12 03:33:20;;;;;;;39.30;24.07;;;0.40;99.90;;;;;;4992210;28;20274;-70
2022/12/12 03:35:52;;;;;;;40.50;24.63;;;0.50;99.90;;;;;;4994693;28;20156;-69
2022/12/12 03:38:22;;;;;;;34.40;22.30;;;0.40;99.90;;;;;;4996285;28;20772;-69
2022/12/12 03:41:02;;;;;;;35.47;24.23;;;0.50;99.90;;;;;;4995649;28;20262;-69
2022/12/12 03:43:32;;;;;;;38.67;23.83;;;0.40;99.90;;;;;;4996885;28;20556;-69
2022/12/12 03:46:13;;;;;;;36.83;24.33;;;0.50;99.90;;;;;;4996959;28;20172;-69
2022/12/12 03:48:54;;;;;;;41.80;24.67;;;0.40;99.90;;;;;;4996851;28;20622;-69
2022/12/12 03:51:35;;;;;;;40.90;24.13;;;0.40;99.90;;;;;;4997132;28;20176;-69
2022/12/12 03:54:28;;;;;;;38.30;23.40;;;0.40;99.90;;;;;;4995669;28;20175;-69
2022/12/12 03:57:06;;;;;;;41.23;23.77;;;0.50;99.90;;;;;;4996631;28;20184;-69
2022/12/12 03:59:41;;;;;;;34.80;24.63;;;0.50;99.90;;;;;;4995634;28;20683;-69
2022/12/12 04:02:25;;;;;;;35.60;23.93;;;0.40;99.90;;;;;;4995238;28;20227;-69
2022/12/12 04:05:16;;;;;;;42.77;25.30;;;0.40;99.90;;;;;;4996526;28;20180;-69
2022/12/12 04:08:13;;;;;;;35.37;24.47;;;0.40;99.90;;;;;;4996472;28;20161;-69
2022/12/12 04:13:38;;;;;;;33.43;23.13;;;0.40;99.90;;;;;;4996555;28;20203;-69
2022/12/12 04:16:09;;;;;;;39.23;24.57;;;0.40;99.90;;;;;;4996321;28;20161;-69
2022/12/12 04:19:01;;;;;;;39.70;26.17;;;0.40;99.90;;;;;;4996829;28;20501;-69
2022/12/12 04:24:45;;;;;;;36.83;23.03;;;0.30;99.90;;;;;;4996147;28;20283;-69
2022/12/12 04:27:16;;;;;;;35.07;23.27;;;0.30;99.90;;;;;;4996213;28;20169;-69
2022/12/12 04:30:02;;;;;;;39.33;24.00;;;0.40;99.90;;;;;;4978772;28;20173;-69
2022/12/12 04:32:34;;;;;;;37.57;24.13;;;0.40;99.90;;;;;;4994913;28;20192;-69
2022/12/12 04:35:24;;;;;;;40.40;25.23;;;0.40;99.90;;;;;;4996147;28;20212;-69
2022/12/12 04:37:55;;;;;;;42.83;26.57;;;0.40;99.90;;;;;;4996044;28;20525;-69
2022/12/12 04:40:26;;;;;;;43.57;26.60;;;0.40;99.90;;;;;;4994569;28;20708;-69
2022/12/12 04:43:18;;;;;;;42.53;25.13;;;0.40;99.90;;;;;;4994510;28;20201;-69
2022/12/12 04:45:51;;;;;;;38.23;25.60;;;0.40;99.90;;;;;;4995774;28;20255;-69
2022/12/12 04:48:25;;;;;;;41.17;23.80;;;0.40;99.90;;;;;;4994141;28;20645;-69
2022/12/12 04:50:52;;;;;;;35.50;24.33;;;0.40;99.90;;;;;;4995993;28;20180;-69
2022/12/12 04:53:25;;;;;;;37.87;24.40;;;0.40;99.90;;;;;;4994197;28;20196;-69
2022/12/12 04:55:55;;;;;;;36.70;24.63;;;0.40;99.90;;;;;;4995428;28;20161;-69
2022/12/12 04:58:22;;;;;;;42.60;26.27;;;0.40;99.90;;;;;;4995438;28;20208;-69
2022/12/12 05:01:14;;;;;;;36.37;24.53;;;0.30;99.90;;;;;;4995430;28;20234;-69
2022/12/12 05:03:54;;;;;;;40.10;25.73;;;0.40;99.90;;;;;;4995309;28;20286;-69
2022/12/12 05:06:27;;;;;;;41.90;25.83;;;0.40;99.90;;;;;;4995539;28;20153;-69
2022/12/12 05:08:55;;;;;;;36.87;25.03;;;0.40;99.90;;;;;;4995354;28;20168;-69
2022/12/12 05:11:22;;;;;;;43.30;26.87;;;0.40;99.90;;;;;;4994963;28;20189;-69
2022/12/12 05:13:48;;;;;;;39.00;25.47;;;0.40;99.90;;;;;;4995112;28;20723;-69
2022/12/12 05:16:28;;;;;;;36.83;26.07;;;0.30;99.90;;;;;;4995728;28;20219;-69
2022/12/12 05:18:53;;;;;;;36.90;23.87;;;0.30;99.90;;;;;;4995091;28;20165;-69
2022/12/12 05:21:19;;;;;;;37.70;25.20;;;0.30;99.90;;;;;;4993666;28;20214;-71
2022/12/12 05:23:45;;;;;;;42.77;26.63;;;0.30;99.90;;;;;;4999107;28;20581;-69
2022/12/12 05:26:29;;;;;;;45.00;27.03;;;0.20;99.90;;;;;;4994803;28;20181;-69
2022/12/12 05:28:55;;;;;;;47.57;26.30;;;0.10;99.90;;;;;;5010018;28;20208;-70
2022/12/12 05:31:21;;;;;;;42.60;27.63;;;0.10;99.90;;;;;;5009907;28;20176;-70
2022/12/12 05:33:47;;;;;;;39.87;25.57;;;0.10;99.90;;;;;;4994708;28;20203;-69
2022/12/12 05:36:14;;;;;;;45.63;26.17;;;0.20;99.90;;;;;;5009912;28;20553;-69
2022/12/12 05:38:40;;;;;;;44.27;24.33;;;0.20;99.90;;;;;;4994792;28;20165;-69
2022/12/12 05:41:06;;;;;;;43.80;26.93;;;0.20;99.90;;;;;;4994355;28;20201;-69
2022/12/12 05:43:33;;;;;;;44.30;27.00;;;0.30;99.90;;;;;;4994618;28;20247;-69
2022/12/12 05:45:59;;;;;;;38.43;24.53;;;0.30;99.90;;;;;;5009679;28;20642;-69
2022/12/12 05:48:25;;;;;;;45.67;25.87;;;0.30;99.90;;;;;;5009694;28;20184;-69
2022/12/12 05:50:52;;;;;;;38.73;25.77;;;0.30;99.90;;;;;;5009663;28;20187;-69
2022/12/12 05:53:18;;;;;;;44.87;27.73;;;0.30;99.90;;;;;;5009352;28;20204;-69
2022/12/12 05:55:43;;;;;;;38.00;25.77;;;0.30;99.90;;;;;;4994321;28;20187;-69
2022/12/12 05:58:09;;;;;;;45.93;26.97;;;0.40;99.90;;;;;;4993603;28;20176;-69
2022/12/12 06:00:35;;;;;;;47.97;26.90;;;0.40;99.90;;;;;;5009133;28;20204;-69
2022/12/12 06:03:01;;;;;;;46.00;26.30;;;0.30;99.90;;;;;;5009372;28;20574;-69
2022/12/12 06:05:27;;;;;;;49.27;28.17;;;0.30;99.90;;;;;;5009405;28;20250;-69
2022/12/12 06:07:52;;;;;;;41.07;26.30;;;0.40;99.90;;;;;;5009379;28;20270;-69
2022/12/12 06:10:18;;;;;;;41.90;26.57;;;0.40;99.90;;;;;;4994192;28;20176;-69
2022/12/12 06:12:44;;;;;;;38.47;26.00;;;0.40;99.90;;;;;;5009048;28;20192;-69
2022/12/12 06:15:10;;;;;;;41.47;27.50;;;0.30;99.90;;;;;;5009154;28;20599;-69
2022/12/12 06:17:35;;;;;;;42.63;26.73;;;0.30;99.90;;;;;;4994121;28;20184;-69
2022/12/12 06:20:01;;;;;;;48.43;26.50;;;0.30;99.90;;;;;;4994417;28;20204;-69
2022/12/12 06:22:27;;;;;;;48.57;28.07;;;0.20;99.90;;;;;;4994074;28;20223;-69
2022/12/12 06:24:53;;;;;;;45.43;26.40;;;0.20;99.90;;;;;;5009260;28;20275;-69
2022/12/12 06:27:19;;;;;;;40.83;26.33;;;0.20;99.90;;;;;;5008927;28;20191;-69
2022/12/12 06:29:44;;;;;;;41.47;25.60;;;0.20;99.90;;;;;;5009095;28;20393;-69
2022/12/12 06:32:10;;;;;;;45.87;27.27;;;0.30;99.90;;;;;;4993819;28;20192;-69
2022/12/12 06:34:37;;;;;;;45.90;28.03;;;0.30;99.90;;;;;;4994026;28;20164;-69
2022/12/12 06:37:06;;;;;;;43.67;27.40;;;0.30;99.90;;;;;;5009032;28;20315;-69
2022/12/12 06:39:32;;;;;;;43.10;26.40;;;0.30;99.90;;;;;;5009036;28;20184;-69
2022/12/12 06:41:57;;;;;;;43.70;26.70;;;0.30;99.90;;;;;;4993843;28;20223;-69
2022/12/12 06:44:23;;;;;;;43.43;26.43;;;0.30;99.90;;;;;;4994564;28;20203;-69
2022/12/12 06:46:49;;;;;;;38.13;25.97;;;0.30;99.90;;;;;;4994646;28;20183;-69
2022/12/12 06:49:14;;;;;;;44.57;27.03;;;0.20;99.90;;;;;;4994151;28;20165;-69
2022/12/12 06:51:42;;;;;;;47.37;26.47;;;0.20;99.90;;;;;;4993749;28;20180;-69
2022/12/12 06:54:15;;;;;;;43.77;27.60;;;0.20;99.90;;;;;;4993777;28;20168;-69
2022/12/12 06:56:41;;;;;;;39.80;26.50;;;0.20;99.90;;;;;;5008799;28;20214;-69
2022/12/12 06:59:07;;;;;;;42.93;28.00;;;0.20;99.90;;;;;;5008854;28;20189;-69
2022/12/12 07:01:32;;;;;;;39.13;26.10;;;0.20;99.90;;;;;;4993991;28;20591;-69
2022/12/12 07:03:58;;;;;;;43.37;27.00;;;0.10;99.90;;;;;;4993864;28;20178;-69
2022/12/12 07:06:24;;;;;;;37.30;25.07;;;0.10;99.90;;;;;;4993810;28;20251;-69
2022/12/12 07:08:51;;;;;;;43.27;26.23;;;0.20;99.90;;;;;;4993869;28;20224;-69
2022/12/12 07:11:20;;;;;;;50.43;27.70;;;0.20;99.90;;;;;;4996604;28;20626;-69
2022/12/12 07:13:46;;;;;;;40.60;27.30;;;0.20;99.90;;;;;;4997512;28;20563;-70
2022/12/12 07:16:12;;;;;;;41.73;25.63;;;0.10;99.90;;;;;;5012401;28;20180;-69
2022/12/12 07:18:38;;;;;;;48.07;27.77;;;0.10;99.90;;;;;;5012579;28;20180;-69
2022/12/12 07:21:06;;;;;;;41.70;27.37;;;0.10;99.90;;;;;;4997358;28;20359;-69
2022/12/12 07:23:32;;;;;;;43.30;27.67;;;0.10;99.90;;;;;;5012236;28;20213;-69
2022/12/12 07:25:58;;;;;;;51.47;29.27;;;0.10;99.90;;;;;;5012486;28;20276;-69
2022/12/12 07:28:24;;;;;;;39.53;24.17;;;0.10;99.90;;;;;;4997545;28;20177;-69
2022/12/12 07:30:49;;;;;;;44.47;26.70;;;0.10;99.90;;;;;;5013081;28;20552;-69
2022/12/12 07:33:16;;;;;;;42.23;25.63;;;0.10;99.90;;;;;;5012636;28;20585;-69
2022/12/12 07:35:42;;;;;;;47.83;27.50;;;0.20;99.90;;;;;;4997632;28;20188;-70
2022/12/12 07:38:09;;;;;;;53.40;30.43;;;0.20;99.90;;;;;;4997457;28;20215;-69
2022/12/12 07:40:35;;;;;;;50.37;28.93;;;0.20;99.90;;;;;;4997564;28;20314;-69
2022/12/12 07:43:02;;;;;;;60.80;37.00;;;0.20;99.90;;;;;;4997093;28;20224;-69
2022/12/12 07:45:27;;;;;;;52.90;32.33;;;0.20;99.90;;;;;;4997018;28;20172;-69
2022/12/12 07:47:53;;;;;;;56.67;32.97;;;0.20;99.90;;;;;;4997599;28;20204;-69
2022/12/12 07:50:20;;;;;;;53.20;30.70;;;0.20;99.90;;;;;;5011979;28;20176;-69
2022/12/12 07:52:45;;;;;;;56.67;31.63;;;0.30;99.90;;;;;;5011819;28;20208;-69
2022/12/12 07:55:11;;;;;;;55.33;31.43;;;0.30;99.90;;;;;;5011843;28;20177;-69
2022/12/12 07:57:38;;;;;;;51.37;29.93;;;0.30;99.90;;;;;;4996324;28;20176;-69
2022/12/12 08:00:05;;;;;;;52.27;31.20;;;0.20;99.90;;;;;;4996541;28;20177;-69
2022/12/12 08:02:31;;;;;;;48.30;29.93;;;0.30;99.90;;;;;;5011684;28;20263;-69
2022/12/12 08:04:56;;;;;;;50.07;29.60;;;0.30;99.90;;;;;;4996841;28;20204;-69
2022/12/12 08:07:23;;;;;;;52.07;29.40;;;0.30;99.90;;;;;;4997076;28;20177;-69
2022/12/12 08:09:49;;;;;;;55.83;30.73;;;0.30;99.90;;;;;;4996558;28;20180;-69
2022/12/12 08:12:14;;;;;;;48.20;29.30;;;0.30;99.90;;;;;;5011278;28;20200;-69
2022/12/12 08:14:40;;;;;;;48.33;29.53;;;0.30;99.90;;;;;;4996459;28;20708;-69
2022/12/12 08:17:06;;;;;;;50.73;29.13;;;0.20;99.90;;;;;;4996406;28;20180;-69
2022/12/12 08:19:32;;;;;;;42.40;28.07;;;0.20;99.90;;;;;;4996581;28;20176;-69
2022/12/12 08:21:58;;;;;;;54.00;31.07;;;0.20;99.90;;;;;;4995330;28;20291;-69
2022/12/12 08:24:23;;;;;;;49.63;27.97;;;0.30;99.90;;;;;;4996043;28;20271;-69
2022/12/12 08:26:51;;;;;;;49.23;28.03;;;0.30;99.90;;;;;;4994688;28;20176;-69
2022/12/12 08:29:17;;;;;;;48.73;27.97;;;0.30;99.90;;;;;;4996437;28;20173;-69
2022/12/12 08:31:43;;;;;;;50.00;29.67;;;0.30;99.90;;;;;;4996209;28;20191;-69
2022/12/12 08:34:08;;;;;;;49.53;28.23;;;0.30;99.90;;;;;;4996066;28;20188;-69
2022/12/12 08:36:35;;;;;;;51.87;27.63;;;0.30;99.90;;;;;;4994596;28;20180;-69
2022/12/12 08:39:05;;;;;;;46.07;27.63;;;0.30;99.90;;;;;;4995914;28;20260;-69
2022/12/12 08:41:32;;;;;;;45.57;27.63;;;0.40;99.90;;;;;;4996455;28;20696;-69
2022/12/12 08:43:58;;;;;;;49.07;28.07;;;0.40;99.90;;;;;;4994954;28;20196;-69
2022/12/12 08:46:23;;;;;;;46.87;26.77;;;0.40;99.90;;;;;;4994789;28;20211;-69
2022/12/12 08:48:49;;;;;;;53.37;27.67;;;0.50;99.90;;;;;;4995982;28;20533;-69
2022/12/12 08:51:16;;;;;;;50.70;28.07;;;0.50;99.90;;;;;;4995666;28;20184;-69
2022/12/12 08:53:49;;;;;;;42.00;27.13;;;0.50;99.90;;;;;;4978009;28;20211;-69
2022/12/12 08:56:16;;;;;;;48.77;27.40;;;0.50;99.90;;;;;;4995561;28;20164;-69
2022/12/12 08:58:43;;;;;;;49.70;29.10;;;0.50;99.90;;;;;;4995560;28;20176;-69
2022/12/12 09:01:10;;;;;;;50.90;28.57;;;0.50;99.90;;;;;;4995939;28;20251;-69
2022/12/12 09:03:35;;;;;;;40.20;27.40;;;0.30;99.90;;;;;;4993945;28;20200;-69
2022/12/12 09:06:01;;;;;;;49.60;28.67;;;0.30;99.90;;;;;;4995411;28;20252;-69
2022/12/12 09:08:28;;;;;;;48.00;26.93;;;0.30;99.90;;;;;;4995814;28;20578;-69
2022/12/12 09:10:53;;;;;;;52.90;29.70;;;0.30;99.90;;;;;;4993928;28;20188;-69
2022/12/12 09:13:19;;;;;;;52.43;30.13;;;0.30;99.90;;;;;;4995069;28;20535;-69
2022/12/12 09:15:49;;;;;;;47.80;28.90;;;0.30;99.90;;;;;;4993872;28;20196;-69
2022/12/12 09:18:15;;;;;;;51.80;29.77;;;0.30;99.90;;;;;;4995373;28;20168;-69
2022/12/12 09:20:41;;;;;;;50.60;30.10;;;0.30;99.90;;;;;;4994967;28;20200;-69
2022/12/12 09:23:07;;;;;;;49.60;29.97;;;0.30;99.90;;;;;;4994717;28;20211;-69
2022/12/12 09:25:32;;;;;;;48.50;30.20;;;0.20;99.90;;;;;;4995556;28;20688;-69
2022/12/12 09:27:58;;;;;;;51.10;30.40;;;0.30;99.90;;;;;;4994758;28;20172;-69
2022/12/12 09:30:24;;;;;;;54.30;30.77;;;0.30;99.90;;;;;;4995167;28;20176;-69
2022/12/12 09:32:50;;;;;;;56.63;30.70;;;0.30;99.90;;;;;;4993448;28;20204;-69
2022/12/12 09:35:15;;;;;;;56.20;31.77;;;0.40;99.90;;;;;;4995059;28;20181;-69
2022/12/12 09:37:41;;;;;;;54.03;29.93;;;0.50;99.90;;;;;;4995007;28;20184;-69
2022/12/12 09:40:10;;;;;;;55.60;31.10;;;0.50;99.90;;;;;;4993390;28;20195;-69
2022/12/12 09:42:40;;;;;;;54.77;30.73;;;0.50;99.90;;;;;;4993284;28;20264;-69
2022/12/12 09:45:07;;;;;;;48.27;29.33;;;0.50;99.90;;;;;;4993486;28;20179;-69
2022/12/12 09:47:39;;;;;;;49.13;29.93;;;0.50;99.90;;;;;;4993267;28;20180;-69
2022/12/12 09:50:24;;;;;;;52.50;31.87;;;0.40;99.90;;;;;;4994624;28;20181;-69
2022/12/12 09:52:51;;;;;;;52.63;31.40;;;0.40;99.90;;;;;;4993333;28;20685;-69
2022/12/12 09:55:20;;;;;;;52.70;29.93;;;0.40;99.90;;;;;;4995062;28;20169;-69
2022/12/12 09:57:58;;;;;;;52.23;30.60;;;0.50;99.90;;;;;;4993449;28;20528;-69
2022/12/12 10:00:26;;;;;;;44.73;29.53;;;0.60;99.90;;;;;;4994641;28;20631;-69
2022/12/12 10:03:39;;;;;;;52.27;30.20;;;0.60;99.90;;;;;;4994633;28;20243;-69
2022/12/12 10:06:07;;;;;;;49.90;28.70;;;0.60;99.90;;;;;;4990955;28;20188;-69
2022/12/12 10:08:46;;;;;;;58.93;29.10;;;0.70;99.90;;;;;;4994352;28;20179;-69
2022/12/12 10:11:53;;;;;;;54.40;30.73;;;0.70;99.90;;;;;;4994275;28;20323;-69
2022/12/12 10:14:46;;;;;;;50.00;30.57;;;0.80;99.90;;;;;;4993066;28;20224;-69
2022/12/12 10:17:21;;;;;;;45.40;28.20;;;0.80;99.90;;;;;;4994088;28;20551;-69
2022/12/12 10:19:53;;;;;;;54.83;30.00;;;0.90;99.90;;;;;;4992926;28;20625;-69
2022/12/12 10:22:27;;;;;;;54.13;32.07;;;0.90;99.90;;;;;;4994186;28;20212;-69
2022/12/12 10:25:19;;;;;;;51.00;30.27;;;1.00;99.90;;;;;;4993977;28;20192;-69
2022/12/12 10:27:45;;;;;;;50.97;30.67;;;0.90;99.90;;;;;;4992210;28;20279;-69
2022/12/12 10:30:16;;;;;;;54.00;31.83;;;1.00;99.90;;;;;;4994016;28;20259;-69
2022/12/12 10:32:45;;;;;;;51.80;30.13;;;1.00;99.90;;;;;;4994045;28;20204;-69
2022/12/12 10:35:28;;;;;;;51.53;30.00;;;1.00;99.90;;;;;;4994224;28;20279;-69
2022/12/12 10:38:24;;;;;;;51.93;30.47;;;1.10;99.90;;;;;;4994417;28;20184;-69
2022/12/12 10:41:18;;;;;;;45.27;29.93;;;1.10;99.90;;;;;;4993734;28;20292;-68
2022/12/12 10:44:10;;;;;;;48.90;29.20;;;1.10;99.90;;;;;;4992483;28;20223;-68
2022/12/12 10:46:42;;;;;;;43.23;26.90;;;1.20;99.90;;;;;;4998181;28;20176;-68
2022/12/12 10:49:34;;;;;;;49.63;28.97;;;1.30;99.90;;;;;;4997811;28;20168;-68
2022/12/12 10:52:04;;;;;;;43.37;25.93;;;1.20;99.90;;;;;;4995948;28;20212;-68
2022/12/12 10:54:38;;;;;;;45.33;29.20;;;1.30;99.90;;;;;;4998263;28;20175;-68
2022/12/12 10:57:07;;;;;;;46.47;27.33;;;1.30;99.90;;;;;;4997910;28;20161;-68
2022/12/12 10:59:45;;;;;;;50.90;29.53;;;1.30;99.90;;;;;;4997616;28;20208;-68
2022/12/12 11:02:39;;;;;;;47.43;28.10;;;1.30;99.90;;;;;;4997680;28;20239;-68
2022/12/12 11:05:07;;;;;;;41.93;26.20;;;1.40;99.90;;;;;;4997850;28;20165;-68
2022/12/12 11:07:45;;;;;;;45.47;27.30;;;1.60;99.90;;;;;;4997481;28;20262;-68
2022/12/12 11:10:30;;;;;;;41.60;25.93;;;1.80;99.90;;;;;;4997420;28;20184;-68
2022/12/12 11:13:01;;;;;;;45.80;27.87;;;2.00;99.90;;;;;;4995850;28;20210;-68
2022/12/12 11:15:39;;;;;;;41.43;26.13;;;2.00;99.90;;;;;;4997380;28;20642;-68
2022/12/12 11:18:12;;;;;;;39.50;24.43;;;1.90;99.90;;;;;;4997893;28;20247;-68
2022/12/12 11:20:44;;;;;;;41.13;26.07;;;2.00;99.90;;;;;;4997800;28;20196;-68
2022/12/12 11:23:23;;;;;;;41.27;25.53;;;1.90;99.90;;;;;;4997189;28;20236;-68
2022/12/12 11:26:00;;;;;;;44.20;26.03;;;1.90;99.90;;;;;;4997680;28;20517;-68
2022/12/12 11:28:32;;;;;;;39.83;25.90;;;1.80;99.90;;;;;;4995857;28;20276;-68
2022/12/12 11:31:03;;;;;;;40.37;25.60;;;1.80;99.90;;;;;;4997503;28;20165;-68
2022/12/12 11:33:54;;;;;;;37.17;24.17;;;1.80;99.90;;;;;;4997081;28;20270;-68
2022/12/12 11:36:26;;;;;;;44.27;25.93;;;1.80;99.90;;;;;;4996970;28;20157;-68
2022/12/12 11:38:54;;;;;;;39.67;25.37;;;1.90;99.90;;;;;;4995751;28;20255;-68
2022/12/12 11:41:21;;;;;;;39.83;25.13;;;2.00;99.90;;;;;;4996859;28;20262;-69
2022/12/12 11:43:46;;;;;;;36.77;24.47;;;2.30;99.90;;;;;;4996810;28;20227;-68
2022/12/12 11:46:16;;;;;;;42.30;23.73;;;2.30;99.90;;;;;;4996933;28;20595;-68
2022/12/12 11:48:51;;;;;;;38.83;24.90;;;2.40;99.90;;;;;;4996762;28;20184;-68
2022/12/12 11:51:37;;;;;;;38.03;24.07;;;2.40;99.90;;;;;;4995396;28;20257;-68
2022/12/12 11:54:28;;;;;;;36.87;24.73;;;2.40;99.90;;;;;;4988328;28;20196;-69
2022/12/12 11:57:11;;;;;;;36.93;23.23;;;2.40;99.90;;;;;;4994083;28;20195;-69
2022/12/12 11:59:55;;;;;;;32.73;22.80;;;2.50;99.90;;;;;;4996640;28;20168;-69
2022/12/12 12:02:33;;;;;;;35.93;22.90;;;2.50;99.90;;;;;;4996970;28;20212;-69
2022/12/12 12:05:38;;;;;;;34.33;23.13;;;2.40;99.90;;;;;;4995308;28;20176;-68
2022/12/12 12:08:30;;;;;;;32.30;21.87;;;2.40;99.90;;;;;;4996759;28;20243;-68
2022/12/12 12:11:02;;;;;;;32.83;23.50;;;2.30;99.90;;;;;;4995850;28;20677;-68
2022/12/12 12:13:43;;;;;;;34.67;23.57;;;2.40;99.90;;;;;;4996254;28;20201;-69
2022/12/12 12:16:18;;;;;;;35.03;23.70;;;2.30;99.90;;;;;;4996361;28;20169;-69
2022/12/12 12:19:05;;;;;;;35.53;21.93;;;2.40;99.90;;;;;;4996208;28;20165;-69
2022/12/12 12:21:41;;;;;;;33.93;21.53;;;2.40;99.90;;;;;;4994820;28;20208;-69
2022/12/12 12:25:02;;;;;;;32.73;21.67;;;2.40;99.90;;;;;;5003320;28;20657;-69
2022/12/12 12:27:36;;;;;;;36.60;22.93;;;2.20;99.90;;;;;;4987437;28;20279;-68
2022/12/12 12:30:21;;;;;;;35.60;22.53;;;2.10;99.90;;;;;;4996076;28;20199;-69
2022/12/12 12:33:09;;;;;;;35.27;23.50;;;2.10;99.90;;;;;;5011128;28;20220;-69
2022/12/12 12:35:49;;;;;;;35.03;25.03;;;2.30;99.90;;;;;;4996234;28;20152;-69
2022/12/12 12:38:38;;;;;;;41.93;25.70;;;2.40;99.90;;;;;;4996197;28;20169;-69
2022/12/12 12:41:28;;;;;;;35.23;21.83;;;2.40;99.90;;;;;;4996049;28;20239;-69
2022/12/12 12:44:08;;;;;;;36.17;24.00;;;2.40;99.90;;;;;;4994414;28;20173;-69
2022/12/12 12:46:51;;;;;;;37.57;23.60;;;2.50;99.90;;;;;;4996105;28;20180;-69
2022/12/12 12:49:23;;;;;;;34.77;23.00;;;2.60;99.90;;;;;;4996187;28;20160;-69
2022/12/12 12:51:58;;;;;;;32.77;22.10;;;2.50;99.90;;;;;;5010622;28;20223;-69
2022/12/12 12:54:34;;;;;;;35.53;22.57;;;2.50;99.90;;;;;;4995898;28;20164;-69
2022/12/12 12:57:09;;;;;;;32.67;21.73;;;2.50;99.90;;;;;;4995646;28;20164;-69
2022/12/12 12:59:42;;;;;;;30.07;20.90;;;2.40;99.90;;;;;;4996045;28;20188;-69
2022/12/12 13:02:35;;;;;;;35.60;22.00;;;2.50;99.90;;;;;;4995400;28;20216;-69
2022/12/12 13:05:18;;;;;;;30.53;21.57;;;2.60;99.90;;;;;;4995413;28;20681;-69
2022/12/12 13:08:25;;;;;;;35.07;22.87;;;2.70;99.90;;;;;;5010250;28;20183;-70
2022/12/12 13:11:21;;;;;;;33.47;22.33;;;2.60;99.90;;;;;;4985712;28;20203;-70
2022/12/12 13:13:49;;;;;;;36.67;22.93;;;2.60;99.90;;;;;;5009125;28;20216;-70